Time;durP1;ratioP1;P1;durP2;ratioP2;P2;SDS_P1;SDS_P2;PMS_P1;PMS_P2;Temp;Humidity;BMP_temperature;BMP_pressure;BME280_temperature;BME280_humidity;BME280_pressure;Samples;Min_cycle;Max_cycle;Signal;HPM_P1;HPM_P2
2021/10/25 00:02:13;;;;;;;5.10;3.00;;;;;;;4.41;66.35;97903.35;115872;1195;31601;-80
2021/10/25 00:04:44;;;;;;;7.00;3.60;;;;;;;4.39;66.29;97898.43;115853;1196;23329;-80
2021/10/25 00:07:14;;;;;;;9.10;3.00;;;;;;;4.37;66.21;97900.38;115954;1190;27285;-81
2021/10/25 00:09:45;;;;;;;4.00;2.70;;;;;;;4.34;66.40;97903.95;115808;1196;25900;-81
2021/10/25 00:12:16;;;;;;;4.90;2.80;;;;;;;4.31;66.34;97904.74;115736;1196;27429;-78
2021/10/25 00:14:47;;;;;;;5.60;2.70;;;;;;;4.29;66.30;97896.71;115755;1196;29250;-80
2021/10/25 00:17:17;;;;;;;7.20;2.80;;;;;;;4.31;66.18;97893.39;115734;1196;27563;-80
2021/10/25 00:19:47;;;;;;;;;;;;;;;4.28;66.29;97889.48;115783;1196;30047;-80
2021/10/25 00:22:17;;;;;;;4.50;2.50;;;;;;;4.28;66.14;97892.40;115703;1196;32020;-80
2021/10/25 00:24:46;;;;;;;;;;;;;;;4.27;66.22;97885.81;115825;1189;44600;-81
2021/10/25 00:27:17;;;;;;;4.10;2.70;;;;;;;4.27;65.96;97883.08;115838;1195;27910;-81
2021/10/25 00:29:48;;;;;;;4.60;2.70;;;;;;;4.28;65.96;97879.20;115766;1196;27830;-80
2021/10/25 00:32:19;;;;;;;4.40;2.70;;;;;;;4.28;65.93;97878.35;115810;1189;28300;-81
2021/10/25 00:34:48;;;;;;;;;;;;;;;4.27;65.85;97877.58;115846;1195;68618;-80
2021/10/25 00:37:19;;;;;;;6.20;2.70;;;;;;;4.26;65.89;97879.07;115819;1193;29678;-82
2021/10/25 00:39:49;;;;;;;3.90;2.60;;;;;;;4.22;66.11;97879.45;115835;1196;31402;-82
2021/10/25 00:42:18;;;;;;;;;;;;;;;4.19;65.95;97876.16;115817;1196;29339;-80
2021/10/25 00:44:49;;;;;;;3.60;2.30;;;;;;;4.21;65.97;97876.13;115740;1196;27768;-81
2021/10/25 00:47:18;;;;;;;;;;;;;;;4.22;65.96;97877.78;115705;1196;47794;-80
2021/10/25 00:49:49;;;;;;;5.30;2.50;;;;;;;4.23;65.79;97876.55;115827;1196;30447;-81
2021/10/25 00:52:20;;;;;;;6.60;2.90;;;;;;;4.24;65.82;97877.04;115885;1196;48835;-80
2021/10/25 00:54:52;;;;;;;4.90;2.40;;;;;;;4.23;65.72;97877.67;115821;1196;24976;-80
2021/10/25 00:57:23;;;;;;;4.80;2.90;;;;;;;4.21;65.76;97875.60;115690;1196;34359;-80
2021/10/25 00:59:53;;;;;;;6.90;2.10;;;;;;;4.18;65.86;97875.13;115701;1196;32271;-81
2021/10/25 01:02:24;;;;;;;3.90;2.40;;;;;;;4.16;65.81;97871.66;115753;1196;24083;-80
2021/10/25 01:04:55;;;;;;;5.90;2.70;;;;;;;4.14;65.83;97866.95;115726;1196;23870;-81
2021/10/25 01:07:26;;;;;;;;;;;;;;;4.12;65.98;97863.02;115843;1195;28527;-81
2021/10/25 01:09:57;;;;;;;7.50;2.50;;;;;;;4.11;66.01;97865.67;115678;1196;28034;-81
2021/10/25 01:12:29;;;;;;;5.10;2.50;;;;;;;4.10;65.92;97865.69;115701;1196;28100;-80
2021/10/25 01:15:00;;;;;;;5.70;2.10;;;;;;;4.07;66.02;97868.14;115672;1196;29356;-80
2021/10/25 01:17:31;;;;;;;6.10;2.60;;;;;;;4.04;66.07;97864.18;115642;1196;27337;-78
2021/10/25 01:20:03;;;;;;;5.20;2.70;;;;;;;4.01;66.20;97862.17;115739;1196;39193;-80
2021/10/25 01:22:34;;;;;;;6.90;2.70;;;;;;;3.99;66.13;97863.56;115642;1196;45893;-80
2021/10/25 01:25:06;;;;;;;4.70;2.50;;;;;;;3.98;66.12;97858.80;115671;1196;54471;-82
2021/10/25 01:27:37;;;;;;;4.20;2.30;;;;;;;4.00;66.33;97859.56;115776;1196;30306;-81
2021/10/25 01:30:09;;;;;;;4.50;2.30;;;;;;;4.03;66.04;97861.08;115860;1196;29278;-80
2021/10/25 01:32:41;;;;;;;4.20;2.20;;;;;;;4.06;66.17;97856.95;115917;1194;31258;-81
2021/10/25 01:35:13;;;;;;;5.60;2.60;;;;;;;4.06;65.96;97858.29;115903;1196;29578;-81
2021/10/25 01:37:43;;;;;;;4.60;2.30;;;;;;;4.07;66.01;97853.52;115799;1196;32820;-81
2021/10/25 01:40:15;;;;;;;4.40;2.30;;;;;;;4.05;65.92;97851.30;115901;1196;25532;-81
2021/10/25 01:42:46;;;;;;;3.40;2.10;;;;;;;4.03;65.97;97848.33;115790;1196;26543;-80
2021/10/25 01:45:17;;;;;;;3.80;1.90;;;;;;;4.01;65.90;97844.82;115823;1196;30125;-80
2021/10/25 01:47:46;;;;;;;;;;;;;;;4.02;65.88;97841.02;115872;1196;27574;-80
2021/10/25 01:50:17;;;;;;;3.60;2.30;;;;;;;4.03;65.91;97842.03;115837;1196;28231;-80
2021/10/25 01:52:48;;;;;;;3.20;1.70;;;;;;;3.99;65.90;97836.97;115758;1196;24572;-81
2021/10/25 01:55:19;;;;;;;3.40;1.90;;;;;;;3.96;65.75;97839.67;115837;1195;24695;-80
2021/10/25 01:57:49;;;;;;;2.60;1.80;;;;;;;3.95;65.77;97838.63;115897;1195;23343;-80
2021/10/25 02:00:18;;;;;;;;;;;;;;;3.93;65.82;97833.02;115848;1195;31226;-82
2021/10/25 02:02:49;;;;;;;4.20;1.90;;;;;;;3.87;65.76;97832.58;115880;1196;29475;-80
2021/10/25 02:05:18;;;;;;;;;;;;;;;3.88;65.81;97827.94;115825;1196;50199;-80
2021/10/25 02:07:49;;;;;;;6.70;2.10;;;;;;;3.92;65.89;97826.15;115729;1190;27603;-80
2021/10/25 02:10:20;;;;;;;5.10;2.10;;;;;;;3.86;65.86;97820.00;115652;1197;28851;-80
2021/10/25 02:12:52;;;;;;;5.20;2.30;;;;;;;3.85;65.72;97821.65;115790;1196;26096;-80
2021/10/25 02:15:22;;;;;;;2.50;1.80;;;;;;;3.89;65.63;97814.98;115833;1195;26727;-81
2021/10/25 02:17:52;;;;;;;;;;;;;;;3.91;65.71;97812.99;115836;1196;26940;-81
2021/10/25 02:20:23;;;;;;;3.00;2.00;;;;;;;3.90;65.55;97809.48;115789;1196;30090;-81
2021/10/25 02:23:00;;;;;;;6.10;2.40;;;;;;;3.89;65.55;97812.23;115783;1196;32200;-81
2021/10/25 02:25:31;;;;;;;5.20;2.60;;;;;;;3.89;65.54;97809.24;115857;1196;26748;-80
2021/10/25 02:28:02;;;;;;;6.00;2.30;;;;;;;3.89;65.53;97809.77;115833;1196;26594;-80
2021/10/25 02:30:33;;;;;;;4.60;2.00;;;;;;;3.85;65.61;97808.49;115740;1196;29483;-81
2021/10/25 02:33:04;;;;;;;5.40;2.20;;;;;;;3.83;65.67;97807.21;115835;1196;30022;-81
2021/10/25 02:35:35;;;;;;;5.00;2.00;;;;;;;3.85;65.50;97807.53;115715;1197;23436;-80
2021/10/25 02:38:06;;;;;;;5.40;1.80;;;;;;;3.86;65.53;97807.33;115812;1195;38601;-81
2021/10/25 02:40:37;;;;;;;5.30;2.20;;;;;;;3.85;65.57;97803.54;115779;1196;29617;-80
2021/10/25 02:43:06;;;;;;;;;;;;;;;3.85;65.51;97808.54;115870;1196;24650;-81
2021/10/25 02:45:39;;;;;;;4.00;2.30;;;;;;;3.85;65.50;97810.44;115835;1196;28560;-81
2021/10/25 02:48:11;;;;;;;4.30;2.30;;;;;;;3.83;65.45;97805.88;115808;1196;25835;-81
2021/10/25 02:50:43;;;;;;;6.90;2.40;;;;;;;3.80;65.54;97802.21;115779;1189;27832;-80
2021/10/25 02:53:15;;;;;;;4.40;2.50;;;;;;;3.74;65.58;97803.23;115811;1196;23858;-82
2021/10/25 02:55:47;;;;;;;5.40;2.30;;;;;;;3.71;65.70;97803.45;115689;1189;28969;-77
2021/10/25 02:58:18;;;;;;;3.40;1.80;;;;;;;3.69;65.67;97800.31;115767;1196;29181;-80
2021/10/25 03:00:49;;;;;;;5.60;2.50;;;;;;;3.68;65.78;97800.39;115854;1195;29324;-80
2021/10/25 03:03:20;;;;;;;6.50;2.50;;;;;;;3.68;65.78;97801.72;115770;1194;41520;-80
2021/10/25 03:05:51;;;;;;;5.70;2.40;;;;;;;3.67;65.81;97797.69;115824;1196;27362;-80
2021/10/25 03:08:22;;;;;;;6.00;2.60;;;;;;;3.66;65.84;97801.00;115807;1196;28362;-80
2021/10/25 03:10:52;;;;;;;3.80;2.00;;;;;;;3.63;65.91;97798.05;115735;1196;31435;-80
2021/10/25 03:13:23;;;;;;;;;;;;;;;3.63;65.85;97800.66;115806;1195;27492;-81
2021/10/25 03:15:54;;;;;;;4.20;2.50;;;;;;;3.65;65.82;97799.20;115793;1184;27667;-81
2021/10/25 03:18:26;;;;;;;9.00;2.60;;;;;;;3.66;65.80;97798.02;115847;1196;31627;-80
2021/10/25 03:20:57;;;;;;;5.50;2.30;;;;;;;3.67;65.76;97792.53;115816;1189;30842;-80
2021/10/25 03:23:28;;;;;;;5.50;2.80;;;;;;;3.66;65.78;97795.61;115761;1190;52245;-80
2021/10/25 03:25:59;;;;;;;6.70;2.70;;;;;;;3.66;65.74;97787.48;115808;1196;29003;-80
2021/10/25 03:28:30;;;;;;;6.60;3.00;;;;;;;3.67;65.83;97785.27;115857;1196;28255;-81
2021/10/25 03:31:01;;;;;;;4.40;2.50;;;;;;;3.68;65.70;97784.93;115767;1196;27783;-80
2021/10/25 03:33:33;;;;;;;5.70;2.50;;;;;;;3.68;65.66;97774.37;115804;1196;29324;-80
2021/10/25 03:36:06;;;;;;;5.00;1.80;;;;;;;3.67;65.77;97777.03;115853;1190;30233;-81
2021/10/25 03:38:39;;;;;;;4.30;2.50;;;;;;;3.68;65.60;97777.36;115817;1195;30864;-80
2021/10/25 03:41:14;;;;;;;2.90;1.80;;;;;;;3.68;65.61;97771.47;115869;1195;29122;-80
2021/10/25 03:43:50;;;;;;;4.60;2.20;;;;;;;3.67;65.58;97768.39;115856;1196;29093;-81
2021/10/25 03:46:29;;;;;;;7.30;2.30;;;;;;;3.65;65.46;97759.15;115711;1196;30694;-81
2021/10/25 03:49:05;;;;;;;3.80;2.10;;;;;;;3.66;65.62;97756.77;115847;1196;27979;-80
2021/10/25 03:51:38;;;;;;;5.20;2.50;;;;;;;3.69;65.43;97758.14;115845;1196;28429;-81
2021/10/25 03:54:23;;;;;;;6.10;2.30;;;;;;;3.72;65.40;97754.17;115803;1196;30400;-81
2021/10/25 03:59:54;;;;;;;5.90;2.50;;;;;;;3.77;65.30;97761.22;115809;1190;28055;-82
2021/10/25 04:27:46;;;;;;;6.30;2.20;;;;;;;3.68;65.23;97719.83;115825;1180;34115;-80
2021/10/25 04:30:19;;;;;;;4.80;2.10;;;;;;;3.68;65.21;97721.72;115851;1195;26711;-80
2021/10/25 04:32:50;;;;;;;2.90;1.90;;;;;;;3.65;65.26;97718.11;115839;1196;25754;-80
2021/10/25 04:35:20;;;;;;;3.80;2.00;;;;;;;3.63;65.38;97714.45;115821;1190;30064;-81
2021/10/25 04:37:49;;;;;;;;;;;;;;;3.63;65.25;97711.51;115834;1196;29238;-80
2021/10/25 04:40:20;;;;;;;4.20;2.10;;;;;;;3.65;65.28;97707.75;115730;1190;28966;-80
2021/10/25 04:42:52;;;;;;;3.70;2.00;;;;;;;3.68;65.27;97709.10;115726;1190;30975;-80
2021/10/25 04:45:22;;;;;;;8.10;3.10;;;;;;;3.71;65.22;97710.77;115749;1196;25516;-80
2021/10/25 04:47:54;;;;;;;3.60;2.40;;;;;;;3.72;65.11;97708.27;115785;1196;31565;-81
2021/10/25 04:50:25;;;;;;;6.90;2.10;;;;;;;3.73;65.08;97708.38;115715;1196;31475;-80
2021/10/25 04:52:56;;;;;;;2.60;2.00;;;;;;;3.75;65.01;97706.71;115839;1196;29223;-80
2021/10/25 04:55:27;;;;;;;4.40;2.30;;;;;;;3.78;65.07;97705.77;115862;1196;25131;-80
2021/10/25 04:57:58;;;;;;;6.10;2.00;;;;;;;3.80;65.09;97703.46;115829;1194;29668;-80
2021/10/25 05:00:29;;;;;;;2.90;2.00;;;;;;;3.79;64.92;97701.60;115862;1196;25866;-80
2021/10/25 05:02:59;;;;;;;;;;;;;;;3.81;64.94;97700.33;115855;1196;30418;-80
2021/10/25 05:05:30;;;;;;;4.10;1.80;;;;;;;3.82;64.78;97704.73;115816;1196;44639;-80
2021/10/25 05:08:01;;;;;;;3.50;1.90;;;;;;;3.84;64.70;97701.96;115745;1196;31414;-80
2021/10/25 05:10:32;;;;;;;5.50;2.40;;;;;;;3.88;64.62;97700.61;115803;1196;30422;-80
2021/10/25 05:13:02;;;;;;;3.40;1.80;;;;;;;3.89;64.50;97695.52;115817;1196;24592;-81
2021/10/25 05:15:33;;;;;;;3.90;1.50;;;;;;;3.88;64.54;97696.09;115719;1189;29240;-80
2021/10/25 05:18:04;;;;;;;4.40;2.10;;;;;;;3.86;64.47;97692.59;115843;1196;23633;-81
2021/10/25 05:20:33;;;;;;;;;;;;;;;3.87;64.33;97690.41;115847;1196;29116;-81
2021/10/25 05:23:04;;;;;;;8.60;3.90;;;;;;;3.92;64.18;97685.42;115728;1196;24682;-81
2021/10/25 05:25:36;;;;;;;11.00;4.60;;;;;;;3.98;64.02;97688.27;115798;1196;27181;-80
2021/10/25 05:28:06;;;;;;;10.50;5.10;;;;;;;3.98;64.02;97695.09;115856;1180;27288;-81
2021/10/25 05:30:37;;;;;;;5.70;3.80;;;;;;;3.94;64.02;97696.23;115796;1195;42780;-81
2021/10/25 05:33:08;;;;;;;6.90;2.50;;;;;;;3.93;64.02;97694.52;115771;1195;27777;-81
2021/10/25 05:35:39;;;;;;;5.60;3.30;;;;;;;3.94;64.01;97703.79;115736;1196;29304;-80
2021/10/25 05:38:11;;;;;;;5.70;2.40;;;;;;;3.94;64.07;97702.20;115738;1190;31758;-81
2021/10/25 05:40:42;;;;;;;5.50;2.80;;;;;;;4.01;63.95;97696.41;115769;1196;27480;-81
2021/10/25 05:43:11;;;;;;;;;;;;;;;4.50;63.61;97697.67;115906;1196;31176;-81
2021/10/25 05:45:42;;;;;;;4.30;2.20;;;;;;;5.15;63.01;97702.73;115817;1196;28915;-81
2021/10/25 05:48:11;;;;;;;;;;;;;;;5.69;61.66;97699.11;115869;1196;30717;-81
2021/10/25 05:50:43;;;;;;;4.80;2.20;;;;;;;6.17;60.77;97702.29;115759;1189;38397;-81
2021/10/25 05:53:14;;;;;;;4.00;2.10;;;;;;;6.70;59.54;97696.84;115861;1196;25810;-81
2021/10/25 05:55:46;;;;;;;4.80;2.10;;;;;;;7.11;58.71;97693.97;115875;1196;23896;-82
2021/10/25 05:58:20;;;;;;;7.30;2.40;;;;;;;7.47;56.96;97689.27;115835;1196;28136;-81
2021/10/25 06:00:54;;;;;;;5.00;2.40;;;;;;;7.66;55.72;97689.00;115840;1189;28728;-81
2021/10/25 06:03:27;;;;;;;4.80;2.20;;;;;;;8.00;55.65;97688.81;115808;1195;27246;-81
2021/10/25 06:05:58;;;;;;;3.90;1.90;;;;;;;8.31;54.48;97688.99;115786;1190;29148;-81
2021/10/25 06:08:29;;;;;;;4.40;2.40;;;;;;;8.72;54.38;97686.23;115779;1196;31815;-81
2021/10/25 06:11:00;;;;;;;4.30;2.60;;;;;;;9.11;53.46;97688.53;115795;1196;26214;-81
2021/10/25 06:13:34;;;;;;;6.00;2.10;;;;;;;9.38;52.40;97687.02;115839;1196;31033;-82
2021/10/25 06:16:15;;;;;;;6.20;2.50;;;;;;;9.64;51.67;97685.35;115761;1196;40189;-81
2021/10/25 06:18:48;;;;;;;4.10;2.30;;;;;;;9.92;51.28;97687.81;115851;1190;33718;-82
2021/10/25 06:21:18;;;;;;;4.50;2.30;;;;;;;10.26;50.59;97686.59;115762;1189;27743;-80
2021/10/25 06:23:48;;;;;;;;;;;;;;;10.45;49.85;97688.52;115791;1189;27912;-81
2021/10/25 06:26:18;;;;;;;4.80;2.30;;;;;;;10.68;49.42;97682.38;115872;1196;26043;-80
2021/10/25 06:28:48;;;;;;;;;;;;;;;11.14;49.94;97678.55;115798;1189;25260;-80
2021/10/25 06:31:19;;;;;;;4.00;2.10;;;;;;;11.48;48.13;97677.48;115858;1196;29939;-80
2021/10/25 06:33:50;;;;;;;5.20;2.20;;;;;;;11.32;46.30;97670.74;115791;1196;28133;-80
2021/10/25 06:36:23;;;;;;;5.20;2.50;;;;;;;11.20;46.19;97673.27;115829;1196;29578;-80
2021/10/25 06:38:57;;;;;;;5.90;2.30;;;;;;;11.15;46.31;97675.10;115765;1196;48889;-82
2021/10/25 06:41:28;;;;;;;8.30;2.50;;;;;;;11.18;45.69;97678.79;115805;1196;29965;-81
2021/10/25 06:43:57;;;;;;;;;;;;;;;11.22;45.72;97685.23;115847;1196;27421;-82
2021/10/25 06:46:27;;;;;;;5.10;2.20;;;;;;;11.21;44.87;97686.07;115802;1189;26882;-80
2021/10/25 06:48:57;;;;;;;;;;;;;;;11.17;44.99;97693.16;115772;1196;28192;-81
2021/10/25 06:51:28;;;;;;;5.60;2.50;;;;;;;11.11;44.32;97697.68;115791;1196;29699;-81
2021/10/25 06:53:59;;;;;;;4.70;2.20;;;;;;;11.15;45.14;97708.48;115706;1196;42125;-80
2021/10/25 06:56:31;;;;;;;3.40;2.00;;;;;;;11.59;45.22;97707.92;115795;1196;27967;-81
2021/10/25 06:59:02;;;;;;;5.50;2.30;;;;;;;12.14;45.78;97705.69;115746;1196;30078;-81
2021/10/25 07:01:33;;;;;;;5.20;2.40;;;;;;;12.60;45.06;97704.36;115805;1196;27571;-82
2021/10/25 07:04:02;;;;;;;;;;;;;;;12.83;44.59;97704.40;115831;1196;28108;-81
2021/10/25 07:06:34;;;;;;;3.90;2.10;;;;;;;12.91;43.72;97702.73;115823;1196;31926;-81
2021/10/25 07:09:05;;;;;;;4.30;2.40;;;;;;;12.84;43.57;97699.98;115798;1196;31248;-81
2021/10/25 07:11:41;;;;;;;4.80;2.20;;;;;;;12.65;42.61;97691.77;115839;1196;30157;-81
2021/10/25 07:14:15;;;;;;;4.40;2.00;;;;;;;12.40;42.28;97684.95;115805;1196;26804;-81
2021/10/25 07:16:49;;;;;;;4.70;2.30;;;;;;;12.10;42.99;97685.64;115816;1196;28205;-81
2021/10/25 07:19:28;;;;;;;4.60;2.00;;;;;;;12.20;43.55;97686.79;115749;1195;28735;-81
2021/10/25 08:01:53;;;;;;;4.40;2.00;;;;;;;10.91;44.57;97665.33;115767;1196;26401;-81
2021/10/25 08:07:14;;;;;;;3.50;2.30;;;;;;;10.79;45.38;97663.04;115770;1196;25956;-81
2021/10/25 08:09:51;;;;;;;6.90;2.70;;;;;;;10.77;45.27;97664.26;115863;1190;28404;-81
2021/10/25 08:12:25;;;;;;;5.70;2.40;;;;;;;10.74;45.56;97662.75;115774;1190;31059;-82
2021/10/25 08:14:58;;;;;;;3.60;2.00;;;;;;;10.68;45.31;97670.70;115794;1196;29997;-81
2021/10/25 08:17:40;;;;;;;3.60;1.60;;;;;;;10.67;45.42;97665.12;115812;1196;27200;-82
2021/10/25 08:20:12;;;;;;;3.40;2.10;;;;;;;10.68;45.70;97660.25;115794;1196;27422;-81
2021/10/25 08:22:43;;;;;;;4.60;2.10;;;;;;;10.78;46.14;97655.72;115811;1196;32531;-81
2021/10/25 08:25:17;;;;;;;6.50;2.30;;;;;;;10.84;45.70;97662.52;115768;1189;27826;-81
2021/10/25 08:27:48;;;;;;;5.30;2.00;;;;;;;10.76;45.22;97657.14;115722;1196;30288;-81
2021/10/25 08:30:21;;;;;;;6.30;2.50;;;;;;;10.59;45.30;97660.92;115818;1196;24341;-81
2021/10/25 08:33:10;;;;;;;4.50;1.80;;;;;;;10.46;45.54;97660.75;115790;1188;29510;-82
2021/10/25 08:35:55;;;;;;;3.50;1.70;;;;;;;10.37;45.96;97657.16;115794;1190;28585;-81
2021/10/25 08:41:16;;;;;;;4.30;2.10;;;;;;;10.26;46.13;97664.01;115887;1196;26390;-81
2021/10/25 08:43:49;;;;;;;5.80;2.40;;;;;;;10.20;46.08;97661.54;115818;1196;30359;-80
2021/10/25 08:46:21;;;;;;;4.70;2.10;;;;;;;10.09;45.97;97655.21;115854;1196;35254;-81
2021/10/25 08:48:53;;;;;;;4.90;2.30;;;;;;;9.90;45.62;97659.29;115818;1196;29571;-81
2021/10/25 08:51:25;;;;;;;5.60;2.50;;;;;;;9.75;46.14;97665.02;115794;1196;29586;-81
2021/10/25 08:53:56;;;;;;;4.90;2.40;;;;;;;9.74;45.99;97671.52;115782;1196;32692;-81
2021/10/25 08:56:27;;;;;;;3.80;2.20;;;;;;;9.72;45.83;97666.52;115730;1196;31091;-81
2021/10/25 08:59:00;;;;;;;3.00;2.10;;;;;;;9.66;45.45;97661.07;115826;1196;28368;-81
2021/10/25 09:01:33;;;;;;;6.90;2.20;;;;;;;9.67;45.93;97652.65;115728;1189;29854;-82
2021/10/25 09:04:11;;;;;;;5.10;2.40;;;;;;;9.70;45.87;97656.88;115831;1196;30281;-82
2021/10/25 09:06:54;;;;;;;5.40;2.60;;;;;;;9.74;46.13;97656.05;115800;1196;26449;-82
2021/10/25 09:09:25;;;;;;;3.10;2.10;;;;;;;9.81;46.47;97652.36;115807;1190;30433;-81
2021/10/25 09:12:06;;;;;;;3.80;2.10;;;;;;;9.94;46.62;97652.73;115895;1196;31992;-81
2021/10/25 09:14:36;;;;;;;;;;;;;;;9.95;46.02;97649.39;115832;1196;28562;-81
2021/10/25 09:17:09;;;;;;;8.40;2.80;;;;;;;10.02;46.40;97646.77;115758;1196;41791;-82
2021/10/25 09:19:45;;;;;;;5.50;2.30;;;;;;;10.05;46.15;97649.83;115824;1196;28175;-81
2021/10/25 09:22:19;;;;;;;5.70;2.30;;;;;;;10.09;45.90;97641.16;115771;1196;29559;-81
2021/10/25 09:24:54;;;;;;;3.70;2.10;;;;;;;10.00;45.76;97637.58;115770;1189;27453;-81
2021/10/25 09:27:35;;;;;;;4.90;2.30;;;;;;;10.02;46.05;97635.50;115786;1196;27376;-82
2021/10/25 09:30:16;;;;;;;5.50;2.10;;;;;;;10.13;46.15;97634.37;115833;1196;26229;-81
2021/10/25 09:32:47;;;;;;;4.40;2.20;;;;;;;10.23;46.01;97636.95;115862;1196;28269;-81
2021/10/25 09:35:21;;;;;;;4.00;2.30;;;;;;;10.29;46.26;97631.86;115755;1196;28379;-80
2021/10/25 09:37:58;;;;;;;5.40;2.50;;;;;;;10.31;45.57;97634.96;115745;1196;34266;-81
2021/10/25 09:40:37;;;;;;;5.30;2.20;;;;;;;10.27;45.45;97630.09;115711;1196;57970;-81
2021/10/25 09:46:21;;;;;;;;;;;;;;;10.25;44.92;97628.05;115587;1196;31132;-82
2021/10/25 09:49:03;;;;;;;4.60;2.20;;;;;;;10.28;45.42;97628.98;115737;1196;33317;-81
2021/10/25 09:51:35;;;;;;;6.90;2.30;;;;;;;10.41;45.38;97620.56;115827;1174;27054;-82
2021/10/25 09:54:08;;;;;;;5.60;2.40;;;;;;;10.48;45.08;97620.69;115772;1196;26819;-82
2021/10/25 09:56:51;;;;;;;4.70;2.00;;;;;;;10.55;45.58;97613.16;115761;1196;27198;-81
2021/10/25 09:59:34;;;;;;;4.00;1.80;;;;;;;10.63;44.80;97614.98;115821;1195;28540;-82
2021/10/25 10:02:06;;;;;;;4.70;2.00;;;;;;;10.67;44.84;97604.09;115765;1196;28927;-82
2021/10/25 10:04:38;;;;;;;3.10;2.00;;;;;;;10.75;44.80;97609.66;115828;1190;29437;-81
2021/10/25 10:07:11;;;;;;;7.90;2.50;;;;;;;10.86;45.12;97607.83;115815;1196;26555;-81
2021/10/25 10:09:44;;;;;;;5.30;2.50;;;;;;;10.98;45.44;97608.43;115867;1196;42172;-82
2021/10/25 10:12:18;;;;;;;2.50;1.70;;;;;;;11.08;45.37;97609.92;115870;1190;27014;-81
2021/10/25 10:14:52;;;;;;;3.50;2.20;;;;;;;11.16;45.07;97603.88;115787;1196;27001;-81
2021/10/25 10:17:28;;;;;;;4.00;2.10;;;;;;;11.24;45.18;97608.38;115824;1196;28867;-81
2021/10/25 10:20:05;;;;;;;3.80;2.00;;;;;;;11.23;44.47;97601.61;115835;1196;28051;-83
2021/10/25 10:22:40;;;;;;;5.90;2.30;;;;;;;11.27;44.84;97600.90;115780;1196;67643;-81
2021/10/25 10:25:11;;;;;;;3.70;2.40;;;;;;;11.36;44.97;97595.80;115798;1189;29734;-81
2021/10/25 10:27:42;;;;;;;3.10;2.20;;;;;;;11.48;45.14;97593.04;115896;1196;25970;-82
2021/10/25 10:30:13;;;;;;;5.20;2.30;;;;;;;11.56;45.46;97594.23;115915;1196;34546;-82
2021/10/25 10:32:44;;;;;;;5.30;2.40;;;;;;;11.62;45.10;97592.45;115877;1196;27960;-82
2021/10/25 10:35:18;;;;;;;5.20;2.20;;;;;;;11.68;44.52;97586.84;115804;1196;33544;-82
2021/10/25 10:37:59;;;;;;;3.10;2.00;;;;;;;11.72;44.67;97579.38;115831;1196;54483;-81
2021/10/25 10:40:39;;;;;;;5.40;2.50;;;;;;;11.81;44.67;97577.77;115767;1189;33992;-81
2021/10/25 10:43:23;;;;;;;5.40;2.70;;;;;;;11.87;44.83;97576.83;115892;1190;24898;-83
2021/10/25 10:46:06;;;;;;;3.90;2.30;;;;;;;11.91;44.61;97574.77;115789;1193;33591;-82
2021/10/25 10:48:39;;;;;;;6.00;2.50;;;;;;;11.96;44.85;97563.61;115828;1196;25307;-82
2021/10/25 10:51:12;;;;;;;6.70;2.80;;;;;;;12.01;44.88;97565.27;115816;1196;26575;-81
2021/10/25 10:53:54;;;;;;;4.20;2.00;;;;;;;12.06;44.60;97566.38;115854;1196;33983;-82
2021/10/25 10:56:29;;;;;;;6.30;2.70;;;;;;;12.06;44.34;97562.19;115736;1196;41579;-82
2021/10/25 10:59:18;;;;;;;6.80;2.60;;;;;;;12.07;44.25;97559.20;115764;1196;35577;-82
2021/10/25 11:01:58;;;;;;;4.70;1.80;;;;;;;12.11;44.42;97555.72;115815;1196;27039;-81
2021/10/25 11:04:36;;;;;;;4.90;2.40;;;;;;;12.20;44.10;97555.19;115785;1196;25460;-83
2021/10/25 11:07:07;;;;;;;5.40;2.60;;;;;;;12.25;44.17;97549.61;115776;1196;29768;-82
2021/10/25 11:09:40;;;;;;;5.20;2.30;;;;;;;12.29;43.62;97551.11;115810;1196;27233;-82
2021/10/25 11:12:12;;;;;;;5.30;2.40;;;;;;;12.32;43.58;97546.42;115781;1196;35524;-82
2021/10/25 11:14:48;;;;;;;4.10;2.10;;;;;;;12.35;43.64;97541.84;115892;1196;28656;-82
2021/10/25 11:17:22;;;;;;;6.40;2.50;;;;;;;12.43;43.78;97541.70;115765;1196;27412;-82
2021/10/25 11:19:55;;;;;;;3.60;2.10;;;;;;;12.49;43.67;97541.78;115833;1195;25966;-82
2021/10/25 11:22:32;;;;;;;3.60;1.80;;;;;;;12.56;43.49;97543.12;115844;1190;29683;-82
2021/10/25 11:25:06;;;;;;;2.90;1.90;;;;;;;12.58;43.47;97540.34;115824;1196;31774;-82
2021/10/25 11:27:39;;;;;;;5.10;2.50;;;;;;;12.63;43.28;97538.63;115815;1196;31478;-82
2021/10/25 11:30:18;;;;;;;7.80;2.80;;;;;;;12.68;43.32;97533.64;115813;1196;28812;-82
2021/10/25 11:32:49;;;;;;;4.40;2.20;;;;;;;12.74;43.30;97532.34;115808;1196;29876;-82
2021/10/25 11:35:20;;;;;;;5.80;2.30;;;;;;;12.81;43.10;97527.64;115839;1196;28635;-83
2021/10/25 11:38:01;;;;;;;6.30;2.60;;;;;;;12.88;42.88;97523.90;115801;1190;31025;-82
2021/10/25 11:40:32;;;;;;;5.10;2.50;;;;;;;12.90;42.36;97523.10;115749;1180;51436;-82
2021/10/25 11:43:03;;;;;;;5.00;2.50;;;;;;;12.91;42.42;97523.09;115819;1196;32803;-83
2021/10/25 11:45:35;;;;;;;5.20;2.20;;;;;;;12.96;42.16;97518.93;115808;1190;27562;-82
2021/10/25 11:48:07;;;;;;;3.80;2.00;;;;;;;13.00;41.63;97514.50;115715;1196;28483;-81
2021/10/25 11:50:38;;;;;;;4.20;1.90;;;;;;;13.07;41.84;97510.42;115844;1196;26648;-82
2021/10/25 11:53:11;;;;;;;3.50;1.80;;;;;;;13.12;40.63;97503.40;115843;1196;31778;-83
2021/10/25 11:55:43;;;;;;;3.60;2.30;;;;;;;13.17;40.41;97503.43;115803;1196;29496;-83
2021/10/25 11:58:17;;;;;;;4.70;1.80;;;;;;;13.26;40.57;97501.98;115881;1196;27082;-82
2021/10/25 12:00:49;;;;;;;3.80;1.70;;;;;;;13.34;39.86;97504.11;115772;1196;28812;-81
2021/10/25 12:03:26;;;;;;;3.60;1.80;;;;;;;13.37;39.90;97500.11;115765;1196;82457;-83
2021/10/25 12:05:57;;;;;;;2.50;1.80;;;;;;;13.44;39.24;97495.66;115809;1196;29746;-81
2021/10/25 12:08:28;;;;;;;3.10;1.80;;;;;;;13.52;39.61;97496.05;115762;1196;28569;-82
2021/10/25 12:10:59;;;;;;;3.10;1.60;;;;;;;13.55;39.31;97496.18;115823;1196;53350;-82
2021/10/25 12:13:30;;;;;;;3.60;1.80;;;;;;;13.55;38.89;97497.46;115792;1196;29875;-82
2021/10/25 12:16:04;;;;;;;3.00;1.50;;;;;;;13.56;38.65;97499.17;115855;1196;28940;-83
2021/10/25 12:18:35;;;;;;;3.10;1.60;;;;;;;13.54;38.78;97497.79;115769;1196;72898;-82
2021/10/25 12:21:10;;;;;;;;;;;;;;;13.56;38.99;97496.08;115818;1196;29676;-83
2021/10/25 12:23:46;;;;;;;4.30;1.90;;;;;;;13.60;39.04;97490.49;115771;1189;30520;-84
2021/10/25 12:26:18;;;;;;;4.00;2.10;;;;;;;13.65;39.46;97484.39;115894;1196;28644;-80
2021/10/25 12:28:49;;;;;;;4.70;1.90;;;;;;;13.71;39.54;97481.70;115746;1196;38400;-82
2021/10/25 12:31:19;;;;;;;;;;;;;;;13.75;38.96;97482.56;115833;1190;32124;-81
2021/10/25 12:34:00;;;;;;;3.20;2.10;;;;;;;13.76;38.64;97481.17;115769;1195;31165;-82
2021/10/25 12:36:37;;;;;;;4.30;2.40;;;;;;;13.75;38.66;97477.99;115829;1196;26962;-82
2021/10/25 12:39:13;;;;;;;3.80;1.60;;;;;;;13.77;38.61;97470.61;115775;1196;29678;-82
2021/10/25 12:41:59;;;;;;;4.30;1.80;;;;;;;13.82;38.37;97464.41;115856;1196;28511;-82
2021/10/25 12:44:36;;;;;;;3.80;1.70;;;;;;;13.87;38.48;97466.88;115813;1196;29768;-83
2021/10/25 12:47:13;;;;;;;6.70;2.20;;;;;;;13.85;38.17;97463.48;115739;1189;70666;-82
2021/10/25 12:49:50;;;;;;;3.50;2.20;;;;;;;13.78;38.19;97459.84;115771;1196;30892;-82
2021/10/25 12:52:24;;;;;;;5.10;1.80;;;;;;;13.78;38.38;97460.80;115746;1193;26583;-82
2021/10/25 12:55:01;;;;;;;3.50;1.80;;;;;;;13.80;38.38;97457.16;115812;1196;32869;-82
2021/10/25 12:57:36;;;;;;;4.00;2.10;;;;;;;13.88;38.83;97454.81;115826;1196;28008;-82
2021/10/25 13:00:11;;;;;;;5.50;2.00;;;;;;;13.94;38.69;97457.18;115718;1196;31375;-82
2021/10/25 13:02:48;;;;;;;3.60;1.80;;;;;;;13.92;38.34;97464.27;115613;1196;61326;-82
2021/10/25 13:05:20;;;;;;;4.50;2.20;;;;;;;13.92;38.48;97465.44;115685;1190;27568;-80
2021/10/25 13:07:52;;;;;;;4.00;2.10;;;;;;;13.95;38.47;97461.92;115768;1196;31150;-80
2021/10/25 13:10:26;;;;;;;3.50;1.60;;;;;;;13.97;38.00;97456.46;115685;1189;29952;-82
2021/10/25 13:12:58;;;;;;;2.80;1.40;;;;;;;14.00;37.85;97455.96;115784;1196;32655;-82
2021/10/25 13:15:30;;;;;;;4.10;1.80;;;;;;;14.01;37.75;97454.93;115829;1189;34444;-82
2021/10/25 13:18:03;;;;;;;3.60;1.80;;;;;;;14.02;37.95;97449.32;115833;1193;30203;-82
2021/10/25 13:20:39;;;;;;;4.00;1.60;;;;;;;14.06;38.39;97443.10;115855;1196;31267;-82